West Monroe, New York
Current Conditions -  °F | °C
As of 11:29 PM on Monday 22 Dec 2014 (Local Time) from KSYR Reporting Station
Drizzle Drizzle  
Wind Chill: 25°   Ceiling: 2200
Heat Index: 34°   Visibility: 5mi
Dew Point: 32°   Wind: 12mph
Humidity: 92%   Direction: 70°ENE
Pressure: 30.13"   Gusts: NA
Location:  43.28°N, 76.07°W
Report Text: KSYR 230429Z 07010KT 5SM -DZ BR OVC022 01/00 A3013 RMK AO2 RAB0359E16DZB16 P0001 T00110000
Loading
Personal Weather Stations






























Interactive Weather Map New forecast layout! Learn more

10-Day Weather Forecast

Advertisements
Track Severe Weather on mobile